Blowing Rock, NC

3:13 AM EDT on April 28, 2015 (GMT -0400)
Coffey Gap | | Change Station
CLOSE
Current Station
Personal Weather Station
Location: Blowing Rock, NC
Elevation: 3484 ft
Nearby Weather Stations
Active Advisory: Frost Advisory

Elev 3484 ft 36.12 °N, 81.72 °W | Updated 13 minutes ago

Clear
Clear
34.5 °F
Feels Like 34 °F
N
0.9
Wind Variable Wind from North
Gusts 2.2 mph

Today
High -- | Low -- °F
--% Chance of Precip.
Yesterday
High -- | Low -- °F
Precip. -- in
6:37 AM 8:11 PM
Waxing Gibbous, 71% visible
Pressure 29.94 in
Visibility 10.0 miles
Clouds Clear
Windchill 34 °F
Dew Point 27 °F
Humidity 74%
Rainfall 0.00 in
Snow Depth Not available.
UV 0 out of 12
Pollen 9.30 out of 12
Air Quality Not available.
Flu Activity Sporadic
METAR KTNB 280635Z AUTO 00000KT 10SM CLR 04/M01 A2994 RMK AO2 T00371012

More Conditions Fewer Conditions

Pressure 29.94 in
Visibility 10.0 miles
Clouds Clear
Windchill 34 °F
Dew Point 27 °F
Humidity 74%
Rainfall 0.00 in
Snow Depth Not available.
UV 0 out of 12
Pollen 9.30 out of 12
Air Quality Not available.
Flu Activity Sporadic
METAR KTNB 280635Z AUTO 00000KT 10SM CLR 04/M01 A2994 RMK AO2 T00371012

More Conditions Fewer Conditions

10-Day Weather Forecast

Almanac

Astronomy

Apr. 28, 2015 Rise Set
Actual Time
Civil Twilight
Nautical Twilight
Astronomical Twilight
Moon
Length of Visible Light
Length of Day
Tomorrow will be .
, % of the Moon is Illuminated

Today's Extremes

State Highs State Lows

Community

WunderPhotos

Upload Photos

1,817,592 photos uploaded!

WunderBlogs® & News

Nearby

Air Quality

  Air Quality AQ Index Pollutant
Not available.

Snow Depth

Station Depth Elevation

Earthquake Activity

City Distance Mag. Time & Date
Minimum magnitude displayed is 2.5.

Coastal Water Temperatures

Place Temperature

Stations

Nearby Weather Stations

Station Location Temp. Windchill Dew Point Humidity Wind Precip. Elev Updated Type
                   
Frost Advisory
Statement as of 10:53 PM EDT on April 27, 2015

... Frost advisory remains in effect from 2 am to 9 am EDT
Tuesday...

* locations... from the Blue Ridge west

* hazards... areas of frost

* temperatures... middle 30s.

* Timing... late tonight through early Tuesday morning

* impacts... cold injury to tender vegetation

Precautionary/preparedness actions...

A frost advisory means that frost is possible. Sensitive outdoor
plants may be killed if left uncovered.